Time;durP1;ratioP1;P1;durP2;ratioP2;P2;SDS_P1;SDS_P2;PMS_P1;PMS_P2;Temp;Humidity;BMP_temperature;BMP_pressure;BME280_temperature;BME280_humidity;BME280_pressure;Samples;Min_cycle;Max_cycle;Signal;HPM_P1;HPM_P2
2022/03/31 00:00:33;;;;;;;;;46.00;36.40;;;;;11.06;57.80;99403.25;5055692;28;45383;-50
2022/03/31 00:02:59;;;;;;;;;50.00;39.00;;;;;11.06;57.43;99409.56;5070708;28;45556;-54
2022/03/31 00:05:24;;;;;;;;;40.25;33.75;;;;;11.01;57.49;99408.66;5055151;28;46128;-51
2022/03/31 00:07:51;;;;;;;;;47.75;36.75;;;;;10.85;56.87;99380.94;5055128;28;45855;-51
2022/03/31 00:10:34;;;;;;;;;38.80;36.20;;;;;11.06;57.42;99403.25;5055495;28;45700;-53
2022/03/31 00:13:00;;;;;;;;;46.40;36.60;;;;;11.16;56.61;99408.09;5085493;27;45370;-52
2022/03/31 00:15:26;;;;;;;;;48.60;37.20;;;;;11.11;56.87;99417.06;5054853;28;46591;-50
2022/03/31 00:17:53;;;;;;;;;48.60;37.00;;;;;11.00;56.35;99406.97;5087376;27;45305;-51
2022/03/31 00:20:18;;;;;;;;;42.80;38.00;;;;;10.97;56.72;99403.66;5055073;28;45595;-54
2022/03/31 00:22:44;;;;;;;;;40.50;37.25;;;;;11.05;56.43;99407.09;5055271;28;45371;-50
2022/03/31 00:25:11;;;;;;;;;38.00;34.00;;;;;11.08;56.27;99403.81;5055113;28;45746;-49
2022/03/31 00:27:37;;;;;;;;;39.40;34.60;;;;;11.10;56.37;99401.69;5055084;28;45777;-53
2022/03/31 00:30:04;;;;;;;;;37.60;33.60;;;;;11.09;55.30;99397.25;5055529;28;45465;-49
2022/03/31 00:32:30;;;;;;;;;36.80;34.40;;;;;11.08;55.50;99396.44;5054999;28;45399;-49
2022/03/31 00:34:55;;;;;;;;;37.50;31.25;;;;;11.00;55.68;99387.75;5040776;28;46431;-50
2022/03/31 00:37:21;;;;;;;;;38.00;34.75;;;;;11.04;56.28;99391.69;5047069;28;45678;-52
2022/03/31 00:39:48;;;;;;;;;37.25;31.00;;;;;11.01;55.00;99383.94;5054760;28;45403;-54
2022/03/31 00:42:14;;;;;;;;;37.60;32.80;;;;;11.06;55.62;99384.84;5055304;28;45562;-52
2022/03/31 00:44:41;;;;;;;;;39.20;33.80;;;;;11.12;55.23;99389.34;5054714;28;45440;-52
2022/03/31 00:47:07;;;;;;;;;35.25;30.75;;;;;11.13;54.67;99387.44;5054776;28;45416;-52
2022/03/31 00:49:34;;;;;;;;;40.60;29.60;;;;;11.09;54.96;99376.13;5054725;28;45474;-53
2022/03/31 00:52:00;;;;;;;;;37.80;30.60;;;;;11.06;54.77;99371.13;5053603;28;45308;-52
2022/03/31 00:54:25;;;;;;;;;36.25;32.50;;;;;11.08;54.76;99377.22;5054606;28;46017;-49
2022/03/31 00:56:51;;;;;;;;;40.50;29.00;;;;;11.04;54.40;99386.19;5053261;28;45385;-49
2022/03/31 00:59:18;;;;;;;;;35.00;27.60;;;;;11.00;55.00;99365.81;5056158;28;45338;-50
2022/03/31 01:01:44;;;;;;;;;34.40;32.60;;;;;11.05;54.53;99369.44;5058798;28;45274;-51
2022/03/31 01:04:10;;;;;;;;;33.60;29.40;;;;;10.98;55.17;99357.81;5056084;28;45819;-51
2022/03/31 01:06:35;;;;;;;;;40.00;31.50;;;;;11.08;55.05;99368.97;5058059;28;45286;-52
2022/03/31 01:09:02;;;;;;;;;24.00;21.50;;;;;11.04;55.01;99359.56;5057726;28;45838;-52
2022/03/31 01:11:31;;;;;;;;;38.20;28.80;;;;;11.03;54.64;99354.31;5057975;28;45408;-52
2022/03/31 01:13:57;;;;;;;;;36.00;33.80;;;;;11.05;55.42;99355.72;5057837;28;45460;-52
2022/03/31 01:16:22;;;;;;;;;36.75;31.50;;;;;11.05;54.93;99357.66;5057810;28;45393;-52
2022/03/31 01:18:50;;;;;;;;;38.25;35.00;;;;;11.09;54.67;99361.56;5057800;28;45290;-54
2022/03/31 01:21:16;;;;;;;;;41.20;31.20;;;;;11.06;54.90;99356.56;5058052;28;45552;-49
2022/03/31 01:23:42;;;;;;;;;34.75;29.25;;;;;11.00;55.53;99357.56;5057558;28;46627;-52
2022/03/31 01:26:10;;;;;;;;;41.50;34.50;;;;;10.92;55.00;99359.63;5056348;28;45499;-53
2022/03/31 01:28:41;;;;;;;;;38.60;32.00;;;;;10.83;55.09;99342.75;5056477;28;45735;-54
2022/03/31 01:31:07;;;;;;;;;37.20;32.20;;;;;10.87;56.04;99347.75;5056846;28;45398;-51
2022/03/31 01:33:33;;;;;;;;;30.25;28.25;;;;;10.91;55.07;99349.75;5057353;28;47011;-53
2022/03/31 01:35:59;;;;;;;;;31.50;28.00;;;;;10.94;56.03;99345.69;5057688;28;45385;-50
2022/03/31 01:38:25;;;;;;;;;30.20;29.20;;;;;10.90;55.15;99334.38;5057567;28;45392;-53
2022/03/31 01:40:51;;;;;;;;;42.40;31.20;;;;;10.87;56.15;99340.34;5057770;28;45435;-54
2022/03/31 01:43:17;;;;;;;;;38.40;31.60;;;;;10.77;55.70;99334.69;5072860;28;46625;-51
2022/03/31 01:45:42;;;;;;;;;39.75;33.25;;;;;10.69;56.32;99333.97;5057730;28;45321;-51
2022/03/31 01:48:08;;;;;;;;;38.00;34.50;;;;;10.66;55.94;99333.66;5056204;28;45441;-53
2022/03/31 01:50:33;;;;;;;;;34.00;29.25;;;;;10.71;56.60;99337.34;5056354;28;45350;-49
2022/03/31 01:52:59;;;;;;;;;37.50;34.75;;;;;10.74;56.55;99324.19;5072616;28;47909;-52
2022/03/31 01:55:24;;;;;;;;;41.00;31.25;;;;;10.63;56.01;99326.78;5073006;28;45416;-53
2022/03/31 01:57:50;;;;;;;;;41.25;36.25;;;;;10.58;56.97;99329.41;5057090;28;45716;-54
2022/03/31 02:00:16;;;;;;;;;41.75;34.25;;;;;10.52;56.55;99319.44;5039816;28;45410;-56
2022/03/31 02:02:42;;;;;;;;;38.75;34.50;;;;;10.51;56.63;99301.31;5057023;28;47145;-53
2022/03/31 02:05:08;;;;;;;;;44.20;37.20;;;;;10.60;56.97;99312.69;5060162;28;45855;-51
2022/03/31 02:07:34;;;;;;;;;41.50;33.75;;;;;10.61;56.82;99314.38;5054463;28;45346;-54
2022/03/31 02:10:00;;;;;;;;;40.40;35.00;;;;;10.33;57.16;99272.97;5022947;28;46116;-53
2022/03/31 02:12:25;;;;;;;;;54.75;41.50;;;;;10.58;56.89;99315.69;5055628;28;46775;-54
2022/03/31 02:14:51;;;;;;;;;43.50;36.00;;;;;10.50;57.54;99302.38;5056956;28;45290;-51
2022/03/31 02:17:17;;;;;;;;;47.60;38.00;;;;;10.15;57.92;99274.84;5057080;28;45395;-48
2022/03/31 02:19:42;;;;;;;;;43.75;38.00;;;;;10.37;57.97;99308.97;5056948;28;45594;-53
2022/03/31 02:22:08;;;;;;;;;49.00;38.00;;;;;10.40;57.96;99316.69;5038766;28;48078;-55
2022/03/31 02:24:36;;;;;;;;;46.00;38.75;;;;;10.39;58.46;99321.34;5056721;28;45332;-50
2022/03/31 02:27:03;;;;;;;;;52.60;38.80;;;;;10.34;58.40;99314.97;5039003;28;45420;-49
2022/03/31 02:29:28;;;;;;;;;53.60;39.20;;;;;10.30;59.19;99314.63;5055312;28;45499;-49
2022/03/31 02:31:54;;;;;;;;;55.25;41.75;;;;;10.14;58.72;99302.53;5038620;28;45882;-49
2022/03/31 02:34:19;;;;;;;;;51.50;39.50;;;;;10.08;58.70;99296.09;5056633;28;45434;-53
2022/03/31 02:36:45;;;;;;;;;56.50;44.00;;;;;10.19;58.69;99318.22;5022119;28;45417;-54
2022/03/31 02:39:12;;;;;;;;;53.60;42.80;;;;;10.15;59.26;99320.63;5056665;28;45747;-54
2022/03/31 02:41:38;;;;;;;;;55.20;39.40;;;;;10.14;59.11;99316.22;5056021;28;45527;-55
2022/03/31 02:44:04;;;;;;;;;51.20;39.20;;;;;10.03;59.10;99315.16;5056409;28;45451;-52
2022/03/31 02:46:30;;;;;;;;;56.60;44.40;;;;;9.99;59.10;99323.03;5072134;28;45457;-49
2022/03/31 02:48:56;;;;;;;;;53.00;41.25;;;;;9.85;60.01;99316.19;5056418;28;45512;-53
2022/03/31 02:51:22;;;;;;;;;55.50;40.50;;;;;9.89;59.91;99322.84;5072484;28;46692;-50
2022/03/31 02:56:32;;;;;;;;;59.00;44.40;;;;;9.92;59.42;99324.28;5056528;28;45489;-54
2022/03/31 02:58:57;;;;;;;;;56.75;44.75;;;;;9.83;59.49;99305.44;5038013;28;45624;-52
2022/03/31 03:01:23;;;;;;;;;51.50;43.50;;;;;9.80;60.06;99308.69;5072001;28;46368;-55
2022/03/31 03:03:51;;;;;;;;;56.50;45.75;;;;;9.86;59.69;99315.94;5037716;28;45328;-53
2022/03/31 03:06:17;;;;;;;;;59.40;44.80;;;;;9.82;59.57;99316.69;5071264;28;45388;-51
2022/03/31 03:08:43;;;;;;;;;60.00;43.75;;;;;9.79;60.59;99306.19;5056290;28;45677;-49
2022/03/31 03:11:09;;;;;;;;;58.75;43.25;;;;;9.73;60.04;99306.06;5055584;28;46345;-53
2022/03/31 03:13:35;;;;;;;;;59.25;45.75;;;;;9.65;60.76;99300.97;5056022;28;45771;-49
2022/03/31 03:16:05;;;;;;;;;66.40;47.80;;;;;9.62;60.12;99304.22;5055846;28;45474;-49
2022/03/31 03:18:31;;;;;;;;;58.50;45.25;;;;;9.59;60.76;99294.56;5056242;28;45319;-50
2022/03/31 03:20:57;;;;;;;;;58.75;43.75;;;;;9.60;60.15;99285.28;5055339;28;46061;-52
2022/03/31 03:23:22;;;;;;;;;59.25;45.50;;;;;9.69;60.79;99293.94;5055738;28;45349;-52
2022/03/31 03:25:48;;;;;;;;;45.75;38.75;;;;;9.77;59.80;99290.00;5071646;28;45447;-50
2022/03/31 03:28:13;;;;;;;;;58.25;45.50;;;;;9.54;60.26;99250.63;5055845;28;45299;-50
2022/03/31 03:30:39;;;;;;;;;61.50;46.75;;;;;9.79;59.87;99285.09;5055687;28;46225;-48
2022/03/31 03:33:05;;;;;;;;;56.50;47.00;;;;;9.65;59.58;99270.03;5055362;28;45465;-51
2022/03/31 03:35:31;;;;;;;;;57.40;43.20;;;;;9.65;60.30;99290.00;5055447;28;45429;-52
2022/03/31 03:37:56;;;;;;;;;53.75;42.50;;;;;9.71;59.78;99278.09;5055697;28;45422;-50
2022/03/31 03:40:22;;;;;;;;;61.25;47.25;;;;;9.43;60.22;99213.97;5055317;28;45779;-48
2022/03/31 03:42:48;;;;;;;;;63.00;47.50;;;;;9.74;60.18;99263.94;5054320;28;45383;-54
2022/03/31 03:45:14;;;;;;;;;53.60;41.80;;;;;9.76;60.06;99269.97;5037489;28;45554;-53
2022/03/31 03:47:40;;;;;;;;;55.75;41.75;;;;;9.82;59.71;99270.91;5037637;28;45645;-53
2022/03/31 03:50:06;;;;;;;;;57.00;43.50;;;;;9.88;59.94;99280.09;5053545;28;45984;-54
2022/03/31 03:52:32;;;;;;;;;63.00;47.40;;;;;9.85;59.33;99273.19;5055049;28;45917;-52
2022/03/31 03:54:57;;;;;;;;;55.75;46.25;;;;;9.75;59.85;99273.81;5055379;28;45314;-52
2022/03/31 03:57:23;;;;;;;;;60.75;43.00;;;;;9.78;59.58;99288.94;5055558;28;45441;-53
2022/03/31 03:59:49;;;;;;;;;52.50;38.50;;;;;9.76;60.11;99271.88;5055424;28;46436;-54
2022/03/31 04:02:15;;;;;;;;;53.50;42.50;;;;;9.53;59.33;99248.97;5055371;28;45307;-50
2022/03/31 04:04:40;;;;;;;;;59.75;45.00;;;;;9.64;59.86;99280.13;5055154;28;45485;-55
2022/03/31 04:07:06;;;;;;;;;56.00;44.75;;;;;9.69;59.75;99282.16;5020964;28;45578;-52
2022/03/31 04:09:32;;;;;;;;;59.75;46.50;;;;;9.67;59.76;99290.63;5053740;28;45481;-51
2022/03/31 04:11:57;;;;;;;;;56.25;40.25;;;;;9.43;59.53;99251.47;5055216;28;45437;-54
2022/03/31 04:14:22;;;;;;;;;63.00;50.00;;;;;9.67;59.05;99293.38;5055122;28;45373;-50
2022/03/31 04:16:48;;;;;;;;;56.00;39.75;;;;;9.65;59.38;99286.47;5036959;28;45440;-49
2022/03/31 04:19:14;;;;;;;;;53.25;40.50;;;;;9.42;59.02;99255.28;5036946;28;45369;-51
2022/03/31 04:21:40;;;;;;;;;54.00;43.75;;;;;9.59;59.16;99280.88;5053470;28;45414;-49
2022/03/31 04:24:05;;;;;;;;;58.25;43.25;;;;;9.61;59.18;99284.19;5055307;28;45403;-49
2022/03/31 04:26:31;;;;;;;;;53.50;41.00;;;;;9.61;58.95;99281.44;5055115;28;45299;-53
2022/03/31 04:28:57;;;;;;;;;54.00;41.50;;;;;9.65;58.29;99297.41;5054765;28;45450;-54
2022/03/31 04:31:23;;;;;;;;;55.75;41.50;;;;;9.39;58.53;99253.03;5055206;28;45382;-49
2022/03/31 04:33:48;;;;;;;;;55.75;42.75;;;;;9.61;58.45;99295.16;5055460;28;45793;-50
2022/03/31 04:36:14;;;;;;;;;55.25;43.50;;;;;9.58;58.02;99289.31;5058810;28;45437;-49
2022/03/31 04:38:40;;;;;;;;;56.75;43.00;;;;;9.61;58.80;99297.06;5058103;28;46068;-50
2022/03/31 04:41:05;;;;;;;;;51.00;39.75;;;;;9.61;58.42;99297.06;5058628;28;45885;-53
2022/03/31 04:43:31;;;;;;;;;61.50;44.25;;;;;9.42;58.25;99267.09;5058553;28;45386;-51
2022/03/31 04:45:56;;;;;;;;;54.00;41.25;;;;;9.55;58.36;99303.50;5058363;28;45554;-52
2022/03/31 04:48:22;;;;;;;;;64.00;45.25;;;;;9.30;59.10;99261.63;5058213;28;45680;-53
2022/03/31 04:50:47;;;;;;;;;45.25;39.00;;;;;9.51;58.23;99300.41;5057840;28;45448;-52
2022/03/31 04:53:14;;;;;;;;;48.25;33.75;;;;;9.43;58.78;99298.03;5058449;28;45327;-52
2022/03/31 04:55:39;;;;;;;;;55.25;44.00;;;;;9.41;59.09;99292.81;5073650;28;45471;-51
2022/03/31 04:58:05;;;;;;;;;55.50;42.00;;;;;9.45;58.07;99291.25;5057984;28;45709;-51
2022/03/31 05:00:31;;;;;;;;;56.75;43.00;;;;;9.48;58.88;99293.50;5073641;28;45310;-49
2022/03/31 05:02:57;;;;;;;;;53.20;42.80;;;;;9.49;58.14;99286.09;5056822;28;45336;-53
2022/03/31 05:05:22;;;;;;;;;51.75;42.00;;;;;9.47;58.28;99286.38;5058327;28;45573;-51
2022/03/31 05:07:48;;;;;;;;;56.75;43.50;;;;;9.04;58.60;99227.38;5057599;28;46124;-54
2022/03/31 05:10:13;;;;;;;;;59.25;44.50;;;;;9.36;58.44;99279.81;5039649;28;45367;-54
2022/03/31 05:12:39;;;;;;;;;48.25;37.50;;;;;9.33;58.66;99265.78;5058091;28;45363;-49
2022/03/31 05:15:04;;;;;;;;;57.25;45.00;;;;;9.38;58.10;99295.19;5058125;28;45580;-52
2022/03/31 05:17:34;;;;;;;;;51.00;39.75;;;;;9.27;57.94;99289.47;5039810;28;47296;-50
2022/03/31 05:20:12;;;;;;;;;59.00;46.40;;;;;9.34;59.12;99295.66;5039735;28;45423;-50
2022/03/31 05:22:38;;;;;;;;;58.20;43.40;;;;;9.39;58.52;99292.19;5057920;28;45302;-50
2022/03/31 05:25:06;;;;;;;;;56.60;43.80;;;;;9.43;57.86;99304.34;5039861;28;45391;-51
2022/03/31 05:27:32;;;;;;;;;46.20;40.00;;;;;9.41;57.51;99303.75;5057485;28;45616;-54
2022/03/31 05:29:57;;;;;;;;;48.25;37.25;;;;;9.25;58.41;99286.16;5039216;28;45528;-51
2022/03/31 05:32:24;;;;;;;;;62.00;44.50;;;;;9.41;57.96;99308.41;5057940;28;45390;-50
2022/03/31 05:34:50;;;;;;;;;55.00;45.25;;;;;9.35;58.07;99300.06;5057955;28;45484;-50
2022/03/31 05:37:16;;;;;;;;;55.25;43.00;;;;;9.30;58.12;99310.91;5057118;28;45382;-49
2022/03/31 05:39:41;;;;;;;;;55.50;43.50;;;;;9.26;57.65;99304.25;5057408;28;45370;-51
2022/03/31 05:42:07;;;;;;;;;57.00;43.50;;;;;9.22;58.32;99314.84;5038895;28;45397;-53
2022/03/31 05:44:33;;;;;;;;;64.00;46.25;;;;;8.89;59.00;99277.94;5038542;28;45559;-51
2022/03/31 05:46:58;;;;;;;;;60.75;45.75;;;;;9.21;58.77;99320.53;5055940;28;46355;-51
2022/03/31 05:49:24;;;;;;;;;64.00;45.25;;;;;9.16;59.09;99306.72;5057403;28;45324;-50
2022/03/31 05:51:49;;;;;;;;;57.75;46.50;;;;;9.25;59.55;99312.69;5057589;28;45669;-49
2022/03/31 05:54:15;;;;;;;;;55.25;43.25;;;;;9.26;58.79;99325.28;5039272;28;45705;-52
2022/03/31 05:56:41;;;;;;;;;63.75;48.50;;;;;9.31;59.28;99322.69;5056985;28;46115;-55
2022/03/31 05:59:08;;;;;;;;;70.00;50.25;;;;;9.28;59.37;99326.72;5056710;28;45425;-52
2022/03/31 06:01:34;;;;;;;;;67.00;49.50;;;;;9.30;59.39;99329.25;5057315;28;45327;-54
2022/03/31 06:03:59;;;;;;;;;66.25;53.00;;;;;9.26;59.53;99331.63;5057540;28;45554;-51
2022/03/31 06:06:25;;;;;;;;;66.00;50.25;;;;;9.29;59.60;99328.41;5056593;28;46725;-53
2022/03/31 06:08:50;;;;;;;;;65.50;53.00;;;;;9.34;59.65;99342.22;5057227;28;45318;-55
2022/03/31 06:11:16;;;;;;;;;70.50;53.00;;;;;9.19;60.10;99334.47;5056659;28;45307;-54
2022/03/31 06:13:41;;;;;;;;;68.25;51.50;;;;;9.11;60.71;99336.75;5057540;28;45508;-52
2022/03/31 06:16:07;;;;;;;;;71.75;54.00;;;;;9.18;60.35;99343.75;5056521;28;45304;-56
2022/03/31 06:18:32;;;;;;;;;66.25;49.75;;;;;9.22;60.24;99339.47;5056782;28;45410;-55
2022/03/31 06:20:58;;;;;;;;;68.75;53.50;;;;;9.16;60.92;99337.69;5056886;28;45357;-54
2022/03/31 06:23:23;;;;;;;;;73.50;55.00;;;;;9.06;60.03;99327.31;5039106;28;45595;-53
2022/03/31 06:25:50;;;;;;;;;69.25;52.75;;;;;9.21;59.90;99356.13;5055338;28;45580;-51
2022/03/31 06:28:16;;;;;;;;;74.50;56.25;;;;;9.02;61.47;99345.28;5038643;28;46262;-51
2022/03/31 06:30:41;;;;;;;;;73.50;56.50;;;;;9.00;60.80;99347.44;5056667;28;45569;-57
2022/03/31 06:33:07;;;;;;;;;76.50;55.50;;;;;8.70;61.84;99320.94;5056886;28;45437;-54
2022/03/31 06:35:32;;;;;;;;;77.25;58.25;;;;;8.93;62.11;99354.91;5056480;28;46047;-51
2022/03/31 06:37:59;;;;;;;;;77.50;59.00;;;;;9.06;61.64;99353.84;5056373;28;45571;-51
2022/03/31 06:40:25;;;;;;;;;70.75;53.25;;;;;9.03;61.21;99352.41;5038153;28;45468;-57
2022/03/31 06:42:50;;;;;;;;;76.25;57.25;;;;;8.98;60.95;99355.06;5056473;28;45387;-48
2022/03/31 06:45:16;;;;;;;;;68.25;53.50;;;;;8.93;61.92;99353.00;5056181;28;45455;-49
2022/03/31 06:47:42;;;;;;;;;81.75;58.00;;;;;8.83;61.48;99333.59;5038425;28;45403;-49
2022/03/31 06:50:09;;;;;;;;;70.50;57.50;;;;;8.78;61.08;99323.38;5056440;28;45414;-48
2022/03/31 06:52:34;;;;;;;;;59.75;50.25;;;;;8.91;61.35;99355.16;5055167;28;45881;-49
2022/03/31 06:54:59;;;;;;;;;77.75;54.75;;;;;8.97;62.12;99352.53;5056195;28;46039;-51
2022/03/31 06:57:25;;;;;;;;;68.75;52.50;;;;;9.11;60.07;99345.78;5054065;28;45359;-49
2022/03/31 06:59:51;;;;;;;;;68.75;53.00;;;;;9.28;60.24;99350.56;5038704;28;45402;-48
2022/03/31 07:02:16;;;;;;;;;68.25;52.75;;;;;9.30;59.58;99345.66;5055176;28;45348;-52
2022/03/31 07:04:42;;;;;;;;;75.50;57.50;;;;;9.41;59.18;99353.06;5056311;28;45662;-47
2022/03/31 07:07:08;;;;;;;;;64.00;52.75;;;;;9.48;59.62;99351.03;5056279;28;45429;-52
2022/03/31 07:09:33;;;;;;;;;68.00;52.00;;;;;9.54;59.58;99349.22;5056308;28;45366;-49
2022/03/31 07:11:59;;;;;;;;;72.25;53.50;;;;;9.60;59.23;99340.06;5056213;28;45393;-48
2022/03/31 07:14:24;;;;;;;;;67.75;52.25;;;;;9.59;59.08;99332.06;5037778;28;48694;-48
2022/03/31 07:16:50;;;;;;;;;61.50;49.25;;;;;9.72;58.10;99331.00;5056116;28;45393;-48
2022/03/31 07:19:16;;;;;;;;;62.75;46.75;;;;;9.82;58.28;99342.16;5005388;27;45988;-50
2022/03/31 07:21:41;;;;;;;;;59.50;47.50;;;;;9.88;57.43;99343.13;5016125;28;45578;-50
2022/03/31 07:24:07;;;;;;;;;56.75;45.25;;;;;9.97;57.89;99349.88;4998041;28;45340;-48
2022/03/31 07:26:32;;;;;;;;;61.25;49.50;;;;;9.94;57.88;99330.34;5015954;28;45371;-49
2022/03/31 07:28:58;;;;;;;;;69.00;52.75;;;;;10.04;57.88;99344.28;5015855;28;45194;-47
2022/03/31 07:31:26;;;;;;;;;67.25;52.50;;;;;9.95;56.50;99329.25;5016382;28;45736;-49
2022/03/31 07:33:51;;;;;;;;;55.25;42.75;;;;;9.95;57.01;99346.56;5015819;28;46526;-48
2022/03/31 07:36:18;;;;;;;;;57.00;45.60;;;;;9.97;57.28;99349.88;5015916;28;45452;-49
2022/03/31 07:38:45;;;;;;;;;59.40;47.40;;;;;9.84;56.87;99348.25;5015713;28;45490;-50
2022/03/31 07:41:12;;;;;;;;;58.25;47.00;;;;;9.77;57.41;99350.28;5009552;28;45539;-49
2022/03/31 07:43:38;;;;;;;;;53.75;43.00;;;;;9.79;58.31;99359.09;5055686;28;45399;-51
2022/03/31 07:46:03;;;;;;;;;59.50;42.00;;;;;9.71;58.50;99345.78;5071221;28;45601;-47
2022/03/31 07:48:29;;;;;;;;;62.25;46.75;;;;;9.73;59.09;99360.88;5037832;28;45440;-53
2022/03/31 07:50:56;;;;;;;;;61.75;46.50;;;;;9.57;59.46;99342.44;5055537;28;45459;-47
2022/03/31 07:53:22;;;;;;;;;66.50;46.00;;;;;9.66;59.02;99353.88;5055845;28;45660;-53
2022/03/31 07:55:48;;;;;;;;;63.50;47.25;;;;;9.64;59.59;99356.84;5037573;28;45468;-65
2022/03/31 07:58:14;;;;;;;;;54.50;42.50;;;;;9.63;59.78;99357.91;4997355;28;45928;-45
2022/03/31 08:00:39;;;;;;;;;62.50;48.75;;;;;9.68;59.35;99355.31;4992880;28;45921;-47
2022/03/31 08:03:05;;;;;;;;;60.50;45.25;;;;;9.67;60.05;99356.38;5032103;28;45729;-49
2022/03/31 08:05:31;;;;;;;;;68.50;52.00;;;;;9.63;60.34;99361.50;5046291;28;45488;-46
2022/03/31 08:07:57;;;;;;;;;68.50;49.00;;;;;9.54;61.02;99359.38;5044384;28;45846;-47
2022/03/31 08:10:23;;;;;;;;;66.75;49.50;;;;;9.62;61.08;99376.25;5029223;28;45363;-49
2022/03/31 08:12:49;;;;;;;;;61.75;47.25;;;;;9.44;61.71;99371.75;5024385;28;46251;-48
2022/03/31 08:15:16;;;;;;;;;66.75;51.25;;;;;9.41;62.17;99374.13;4995495;28;45487;-47
2022/03/31 08:17:42;;;;;;;;;60.25;44.00;;;;;9.05;62.96;99336.63;5030652;28;45952;-50
2022/03/31 08:20:09;;;;;;;;;75.50;53.50;;;;;9.20;64.02;99390.06;5010455;28;45816;-47
2022/03/31 08:22:35;;;;;;;;;66.75;52.00;;;;;9.09;63.92;99378.84;5025304;28;46304;-48
2022/03/31 08:25:01;;;;;;;;;66.50;51.25;;;;;9.08;63.91;99387.31;5017160;28;45573;-49
2022/03/31 08:27:27;;;;;;;;;58.00;43.20;;;;;8.99;64.09;99378.59;5030225;28;45538;-48
2022/03/31 08:29:52;;;;;;;;;50.50;40.50;;;;;9.01;64.42;99405.75;5010748;28;45638;-49
2022/03/31 08:32:18;;;;;;;;;28.25;24.75;;;;;8.97;64.36;99410.00;5028559;28;45976;-56
2022/03/31 08:34:44;;;;;;;;;22.80;20.80;;;;;8.88;63.31;99409.50;5030738;28;45836;-49
2022/03/31 08:37:09;;;;;;;;;17.75;16.25;;;;;8.67;63.21;99419.91;5029009;28;45703;-52
2022/03/31 08:39:35;;;;;;;;;21.50;18.25;;;;;8.62;63.25;99422.50;5012590;28;45331;-48
2022/03/31 08:42:01;;;;;;;;;19.75;17.25;;;;;8.32;63.92;99406.88;5039949;28;47014;-52
2022/03/31 08:44:26;;;;;;;;;22.25;18.25;;;;;8.24;62.54;99428.00;5065930;28;45669;-49
2022/03/31 08:46:52;;;;;;;;;18.00;13.50;;;;;8.08;63.36;99434.06;5066180;28;45515;-52
2022/03/31 08:49:19;;;;;;;;;12.50;12.50;;;;;7.97;63.05;99447.44;5032678;28;45543;-51
2022/03/31 08:51:45;;;;;;;;;14.80;13.60;;;;;7.84;62.66;99455.75;5030322;28;45636;-49
2022/03/31 08:54:11;;;;;;;;;13.20;13.20;;;;;7.72;62.94;99431.06;5021245;28;45534;-50
2022/03/31 08:56:37;;;;;;;;;18.50;13.75;;;;;7.92;63.15;99460.94;5032427;28;45563;-48
2022/03/31 08:59:02;;;;;;;;;13.25;13.25;;;;;7.86;63.13;99464.56;5041073;28;45404;-49
2022/03/31 09:01:28;;;;;;;;;10.75;7.75;;;;;7.88;63.18;99478.00;5048865;28;45869;-48
2022/03/31 09:03:53;;;;;;;;;12.75;8.50;;;;;7.87;62.17;99485.34;5063996;28;45386;-47
2022/03/31 09:06:28;;;;;;;;;19.00;15.75;;;;;7.84;61.97;99494.00;5050329;28;45726;-48
2022/03/31 09:09:06;;;;;;;;;7.20;7.00;;;;;7.82;61.54;99496.97;5048914;28;45770;-48
2022/03/31 09:11:33;;;;;;;;;6.80;6.80;;;;;7.77;60.80;99494.06;5049938;28;45483;-49
2022/03/31 09:14:00;;;;;;;;;8.20;7.00;;;;;7.72;61.26;99521.22;5014301;28;45531;-49
2022/03/31 09:16:35;;;;;;;;;7.00;7.00;;;;;7.33;60.38;99464.78;5049942;28;45486;-51
2022/03/31 09:19:11;;;;;;;;;5.40;5.20;;;;;7.54;61.73;99516.53;5033305;28;45747;-48
2022/03/31 09:21:52;;;;;;;;;9.00;7.20;;;;;7.54;61.30;99516.53;5017005;28;45467;-51
2022/03/31 09:24:19;;;;;;;;;8.20;6.00;;;;;7.50;61.64;99526.22;5066834;28;45447;-48
2022/03/31 09:26:48;;;;;;;;;7.80;6.80;;;;;7.21;60.85;99512.16;5052279;28;45701;-48
2022/03/31 09:29:15;;;;;;;;;9.00;5.80;;;;;7.24;61.72;99531.66;5068795;28;45547;-47
2022/03/31 09:31:41;;;;;;;;;6.00;6.00;;;;;7.01;61.98;99488.53;5068785;28;47318;-48
2022/03/31 09:34:07;;;;;;;;;3.50;3.50;;;;;7.18;62.59;99536.09;5068735;28;45520;-48
2022/03/31 09:36:32;;;;;;;;;6.00;5.75;;;;;7.13;62.24;99535.91;5032017;28;45604;-52
2022/03/31 09:39:08;;;;;;;;;10.25;6.25;;;;;7.18;61.72;99555.19;5065865;28;45433;-50
2022/03/31 09:41:37;;;;;;;;;11.00;7.40;;;;;7.22;62.54;99546.56;5012642;28;45655;-47
2022/03/31 09:44:23;;;;;;;;;8.80;5.60;;;;;7.04;62.12;99551.69;5049362;28;45897;-47
2022/03/31 09:46:49;;;;;;;;;10.80;10.80;;;;;7.04;62.68;99567.22;5053066;28;45919;-47
2022/03/31 09:49:17;;;;;;;;;10.50;9.75;;;;;6.48;61.59;99469.53;5033958;28;45602;-48
2022/03/31 09:51:45;;;;;;;;;6.80;6.20;;;;;6.87;62.39;99532.28;5050298;28;48697;-48
2022/03/31 09:54:11;;;;;;;;;11.00;6.00;;;;;6.88;61.07;99539.41;5051023;28;45916;-49
2022/03/31 09:56:38;;;;;;;;;8.25;7.00;;;;;7.03;61.88;99571.00;5050039;28;45318;-49
2022/03/31 09:59:04;;;;;;;;;10.00;8.80;;;;;7.09;61.67;99561.94;5042042;27;45822;-49
2022/03/31 10:01:31;;;;;;;;;11.00;7.50;;;;;7.12;62.04;99560.69;5051356;28;46347;-50
2022/03/31 10:03:56;;;;;;;;;6.60;6.60;;;;;7.19;60.81;99553.28;5049977;28;45595;-50
2022/03/31 10:06:24;;;;;;;;;8.25;8.25;;;;;7.24;61.31;99560.81;5068250;28;45899;-53
2022/03/31 10:08:49;;;;;;;;;9.60;7.60;;;;;7.22;61.19;99565.66;5032399;28;45810;-47
2022/03/31 10:11:15;;;;;;;;;5.50;5.50;;;;;7.09;60.79;99552.94;5049756;28;46815;-47
2022/03/31 10:13:46;;;;;;;;;7.75;6.25;;;;;7.26;61.62;99572.38;5048341;28;45422;-45
2022/03/31 10:16:16;;;;;;;;;7.00;7.00;;;;;7.37;61.40;99576.28;5065666;28;45527;-48
2022/03/31 10:18:45;;;;;;;;;6.80;6.80;;;;;7.33;60.68;99571.25;5050444;28;45384;-46
2022/03/31 10:21:10;;;;;;;;;5.00;5.00;;;;;7.36;60.10;99574.63;5034164;28;46108;-47
2022/03/31 10:26:27;;;;;;;;;6.20;6.20;;;;;7.34;60.20;99572.09;5035507;28;45437;-49
2022/03/31 10:28:56;;;;;;;;;4.00;2.40;;;;;7.29;60.00;99582.84;5050844;28;45868;-50
2022/03/31 10:31:32;;;;;;;;;4.40;2.20;;;;;7.34;60.80;99583.03;5033014;28;46227;-51
2022/03/31 10:33:57;;;;;;;;;10.80;7.20;;;;;7.36;60.03;99569.16;4999003;28;45433;-48
2022/03/31 10:36:23;;;;;;;;;8.75;6.75;;;;;7.44;60.05;99577.09;5068629;28;45497;-53
2022/03/31 10:38:56;;;;;;;;;10.75;10.00;;;;;7.53;60.63;99555.81;5057431;28;45236;-51
2022/03/31 10:41:33;;;;;;;;;7.80;7.40;;;;;7.65;60.40;99564.97;5055462;28;45420;-53
2022/03/31 10:43:59;;;;;;;;;6.60;6.40;;;;;7.85;59.33;99561.25;5035908;28;45503;-48
2022/03/31 10:46:25;;;;;;;;;5.50;5.50;;;;;7.83;60.14;99564.19;5022373;28;45450;-49
2022/03/31 10:48:55;;;;;;;;;6.00;3.00;;;;;7.75;59.57;99549.97;5032243;28;45868;-53
2022/03/31 10:51:32;;;;;;;;;3.80;3.80;;;;;7.82;59.99;99562.53;5053350;28;45358;-51
2022/03/31 10:53:57;;;;;;;;;5.00;2.60;;;;;7.76;59.51;99540.72;5038533;28;45404;-52
2022/03/31 10:56:25;;;;;;;;;3.50;3.00;;;;;7.88;59.90;99557.25;5056068;28;45378;-51
2022/03/31 10:58:52;;;;;;;;;7.00;3.00;;;;;8.00;59.40;99556.28;5035495;27;46053;-52
2022/03/31 11:01:18;;;;;;;;;5.00;3.00;;;;;8.10;58.95;99549.44;5055679;28;46496;-52
2022/03/31 11:03:45;;;;;;;;;3.40;3.40;;;;;8.17;59.75;99554.88;5055867;28;45406;-50
2022/03/31 11:06:13;;;;;;;;;2.60;2.60;;;;;8.12;58.77;99553.63;5056508;28;45552;-52
2022/03/31 11:08:46;;;;;;;;;6.00;5.00;;;;;7.81;58.65;99535.44;5056614;28;45592;-54
2022/03/31 11:11:19;;;;;;;;;2.00;2.00;;;;;7.83;57.72;99556.00;5071259;28;46546;-52
2022/03/31 11:13:45;;;;;;;;;6.00;3.00;;;;;7.82;58.60;99553.47;5071535;28;45393;-53
2022/03/31 11:16:11;;;;;;;;;5.25;3.00;;;;;7.89;58.71;99565.19;5038094;28;45382;-53
2022/03/31 11:18:37;;;;;;;;;3.00;3.00;;;;;7.92;59.60;99534.72;5038339;28;45548;-51
2022/03/31 11:21:03;;;;;;;;;5.00;5.00;;;;;7.96;58.20;99549.56;5071220;28;46625;-55
2022/03/31 11:23:29;;;;;;;;;6.60;4.60;;;;;8.04;58.29;99574.94;5054833;28;45381;-50
2022/03/31 11:25:55;;;;;;;;;5.60;3.40;;;;;7.87;57.57;99531.81;5054877;28;45450;-52
2022/03/31 11:28:21;;;;;;;;;7.00;6.50;;;;;7.90;57.06;99546.91;5054348;28;45600;-55